Time;durP1;ratioP1;P1;durP2;ratioP2;P2;SDS_P1;SDS_P2;PMS_P1;PMS_P2;Temp;Humidity;BMP_temperature;BMP_pressure;BME280_temperature;BME280_humidity;BME280_pressure;Samples;Min_cycle;Max_cycle;Signal;HPM_P1;HPM_P2
2023/05/15 00:00:38;;;;;;;33.05;22.67;;;;;;;13.13;100.00;99644.66;5054096;28;20021;-72
2023/05/15 00:03:04;;;;;;;36.08;22.77;;;;;;;13.00;100.00;99643.00;5068720;28;20043;-72
2023/05/15 00:05:30;;;;;;;35.00;24.02;;;;;;;13.02;100.00;99638.66;5073813;28;20036;-72
2023/05/15 00:07:55;;;;;;;37.72;25.48;;;;;;;13.07;100.00;99637.63;5072762;28;20520;-71
2023/05/15 00:10:21;;;;;;;41.30;25.27;;;;;;;12.96;100.00;99623.22;5060555;28;20032;-72
2023/05/15 00:12:46;;;;;;;39.47;25.40;;;;;;;13.05;100.00;99618.31;5052459;28;20094;-72
2023/05/15 00:15:11;;;;;;;44.17;26.83;;;;;;;13.03;100.00;99612.25;5054662;28;20040;-72
2023/05/15 00:17:37;;;;;;;48.53;28.30;;;;;;;12.94;100.00;99608.72;5061433;28;20032;-71
2023/05/15 00:20:04;;;;;;;43.53;27.35;;;;;;;12.94;100.00;99622.75;5065406;28;20043;-72
2023/05/15 00:22:29;;;;;;;43.78;27.17;;;;;;;12.91;100.00;99612.19;5073535;28;20044;-72
2023/05/15 00:24:55;;;;;;;44.38;28.92;;;;;;;12.84;100.00;99617.56;5072025;28;20064;-72
2023/05/15 00:27:20;;;;;;;46.00;27.63;;;;;;;12.72;100.00;99612.72;5072184;28;20029;-72
2023/05/15 00:29:45;;;;;;;54.30;30.05;;;;;;;12.62;100.00;99612.03;5073350;28;20029;-72
2023/05/15 00:32:11;;;;;;;50.78;29.95;;;;;;;12.64;100.00;99608.84;5055505;28;20025;-72
2023/05/15 00:34:36;;;;;;;54.28;31.52;;;;;;;12.74;100.00;99608.41;5072318;28;20035;-72
2023/05/15 00:37:02;;;;;;;52.95;30.67;;;;;;;12.74;100.00;99602.81;5071207;28;20025;-72
2023/05/15 00:39:27;;;;;;;52.17;29.77;;;;;;;12.70;100.00;99596.25;5070014;28;20020;-72
2023/05/15 00:41:54;;;;;;;43.05;28.80;;;;;;;12.86;100.00;99593.59;5072667;28;20494;-72
2023/05/15 00:44:20;;;;;;;44.22;27.23;;;;;;;12.89;100.00;99586.47;5072985;28;20061;-72
2023/05/15 00:46:48;;;;;;;40.35;27.02;;;;;;;12.95;100.00;99584.25;5055114;28;20029;-72
2023/05/15 00:49:15;;;;;;;43.97;26.48;;;;;;;12.99;100.00;99580.41;5072003;28;20032;-72
2023/05/15 00:51:41;;;;;;;44.15;28.15;;;;;;;12.81;100.00;99574.16;5072909;28;20028;-72
2023/05/15 00:54:07;;;;;;;44.75;28.63;;;;;;;12.95;100.00;99568.22;5072880;28;20420;-72
2023/05/15 00:56:33;;;;;;;42.78;27.98;;;;;;;12.80;100.00;99552.88;5069033;28;20040;-72
2023/05/15 00:58:59;;;;;;;43.05;27.80;;;;;;;12.81;100.00;99553.72;5072790;28;20071;-72
2023/05/15 01:01:25;;;;;;;44.40;27.55;;;;;;;12.91;100.00;99539.19;5071159;28;20036;-72
2023/05/15 01:03:50;;;;;;;47.05;28.17;;;;;;;13.00;100.00;99553.16;5072645;28;20032;-72
2023/05/15 01:06:16;;;;;;;51.55;29.67;;;;;;;12.91;100.00;99545.66;5072620;28;20024;-72
2023/05/15 01:08:46;;;;;;;51.50;30.17;;;;;;;12.92;100.00;99536.06;5072186;28;20031;-72
2023/05/15 01:11:16;;;;;;;51.72;29.05;;;;;;;12.85;100.00;99530.22;5072495;28;20056;-72
2023/05/15 01:13:42;;;;;;;44.92;27.58;;;;;;;12.74;100.00;99529.84;5071493;28;20036;-72
2023/05/15 01:16:09;;;;;;;45.13;28.73;;;;;;;12.68;100.00;99522.81;5071395;28;20107;-72
2023/05/15 01:18:35;;;;;;;44.70;29.63;;;;;;;12.63;100.00;99514.63;5070998;28;20162;-72
2023/05/15 01:21:03;;;;;;;43.08;27.90;;;;;;;12.66;100.00;99518.72;5071058;28;20165;-72
2023/05/15 01:24:12;;;;;;;43.25;27.27;;;;;;;12.64;100.00;99511.47;5070982;28;20036;-72
2023/05/15 01:26:52;;;;;;;41.58;26.30;;;;;;;12.67;100.00;99523.16;5072088;28;20013;-72
2023/05/15 01:29:23;;;;;;;;;;;;;;;12.69;100.00;99534.84;5072752;28;20115;-72
2023/05/15 01:32:01;;;;;;;;;;;;;;;12.72;100.00;99532.19;5057872;28;19917;-72
2023/05/15 01:34:36;;;;;;;43.13;25.20;;;;;;;12.58;100.00;99542.91;5069850;28;19920;-72
2023/05/15 01:37:03;;;;;;;35.20;24.08;;;;;;;12.71;100.00;99532.50;5071985;28;20112;-72
2023/05/15 01:39:32;;;;;;;34.13;23.77;;;;;;;12.60;100.00;99515.31;5072018;28;20029;-72
2023/05/15 01:42:09;;;;;;;34.20;23.40;;;;;;;12.64;100.00;99508.66;5072048;28;20100;-72
2023/05/15 01:44:43;;;;;;;27.77;21.10;;;;;;;12.46;100.00;99496.81;5070500;28;20066;-72
2023/05/15 01:47:16;;;;;;;36.40;23.30;;;;;;;12.30;100.00;99490.22;5069177;28;20039;-72
2023/05/15 01:49:44;;;;;;;33.75;22.88;;;;;;;12.11;100.00;99469.16;5071810;28;20073;-72
2023/05/15 01:52:18;;;;;;;36.05;24.50;;;;;;;11.99;100.00;99474.69;5069455;28;20028;-72
2023/05/15 01:54:45;;;;;;;36.25;22.70;;;;;;;12.14;100.00;99476.06;5071760;28;20538;-72
2023/05/15 01:57:11;;;;;;;31.70;24.00;;;;;;;12.17;100.00;99473.34;5071583;28;20479;-72
2023/05/15 01:59:38;;;;;;;41.90;24.58;;;;;;;12.26;100.00;99490.13;5071691;28;20028;-72
2023/05/15 02:02:04;;;;;;;31.55;23.58;;;;;;;12.16;100.00;99507.38;5052991;28;20025;-72
2023/05/15 02:04:32;;;;;;;35.90;23.95;;;;;;;12.14;100.00;99527.31;5055597;28;20027;-72
2023/05/15 02:07:00;;;;;;;30.73;24.52;;;;;;;12.04;100.00;99548.22;5071360;28;20025;-72
2023/05/15 02:09:27;;;;;;;36.53;25.42;;;;;;;12.14;100.00;99538.53;5071526;28;20024;-72
2023/05/15 02:11:53;;;;;;;40.95;28.27;;;;;;;12.17;100.00;99539.84;5071380;28;20031;-72
2023/05/15 02:14:20;;;;;;;34.28;25.08;;;;;;;12.23;100.00;99506.81;5070164;28;20486;-72
2023/05/15 02:16:45;;;;;;;37.05;24.02;;;;;;;12.21;100.00;99502.38;5070290;28;20407;-72
2023/05/15 02:19:11;;;;;;;33.67;23.65;;;;;;;11.88;100.00;99497.53;5071362;28;20024;-72
2023/05/15 02:21:36;;;;;;;35.60;24.83;;;;;;;11.74;100.00;99511.81;5059387;28;20020;-71
2023/05/15 02:24:02;;;;;;;35.70;24.65;;;;;;;12.04;100.00;99510.94;5070128;28;20032;-72
2023/05/15 02:26:51;;;;;;;38.15;23.95;;;;;;;12.00;100.00;99530.38;5071224;28;20506;-72
2023/05/15 02:29:41;;;;;;;32.57;24.33;;;;;;;11.96;100.00;99539.84;5069051;28;20123;-72
2023/05/15 02:32:26;;;;;;;32.63;23.38;;;;;;;12.06;100.00;99523.44;5069599;28;20475;-72
2023/05/15 02:35:03;;;;;;;35.05;23.00;;;;;;;12.33;100.00;99500.75;5050979;28;20566;-72
2023/05/15 02:37:33;;;;;;;29.58;21.40;;;;;;;12.33;100.00;99481.94;5051099;28;20033;-72
2023/05/15 02:40:00;;;;;;;30.08;23.17;;;;;;;12.43;100.00;99479.84;5060675;28;20033;-72
2023/05/15 02:42:28;;;;;;;27.77;21.90;;;;;;;12.53;100.00;99485.03;5054233;28;20031;-72
2023/05/15 02:44:54;;;;;;;34.83;23.27;;;;;;;12.57;100.00;99490.78;5058466;28;20063;-72
2023/05/15 02:47:22;;;;;;;30.85;22.30;;;;;;;12.56;100.00;99470.28;5071277;28;20108;-72
2023/05/15 02:49:48;;;;;;;27.63;21.40;;;;;;;12.67;100.00;99473.47;5071098;28;20035;-72
2023/05/15 02:52:14;;;;;;;34.85;23.20;;;;;;;12.72;100.00;99481.66;5071110;28;20036;-71
2023/05/15 02:54:40;;;;;;;30.33;22.58;;;;;;;12.75;100.00;99474.53;5051730;28;20055;-72
2023/05/15 02:57:06;;;;;;;29.80;22.48;;;;;;;12.79;100.00;99483.88;5069496;28;20115;-72
2023/05/15 02:59:33;;;;;;;29.38;22.08;;;;;;;12.84;100.00;99499.69;5067784;28;20036;-72
2023/05/15 03:01:58;;;;;;;34.17;21.55;;;;;;;12.82;100.00;99496.41;5052191;28;20510;-72
2023/05/15 03:04:24;;;;;;;31.05;22.20;;;;;;;12.86;100.00;99484.13;5068369;28;20039;-72
2023/05/15 03:06:49;;;;;;;27.52;20.70;;;;;;;12.91;100.00;99483.06;5074963;28;20107;-72
2023/05/15 03:09:15;;;;;;;31.63;21.77;;;;;;;12.89;100.00;99491.00;5073685;28;20024;-72
2023/05/15 03:11:41;;;;;;;30.23;20.95;;;;;;;12.86;100.00;99498.16;5073541;28;20115;-73
2023/05/15 03:14:06;;;;;;;27.50;21.48;;;;;;;12.93;100.00;99500.41;5059111;28;20036;-72
2023/05/15 03:16:31;;;;;;;31.08;22.23;;;;;;;12.94;100.00;99504.00;5074703;28;20102;-72
2023/05/15 03:18:57;;;;;;;30.05;21.92;;;;;;;12.91;100.00;99503.53;5073427;28;20017;-72
2023/05/15 03:21:22;;;;;;;33.75;22.40;;;;;;;12.85;100.00;99512.53;5074692;28;20499;-72
2023/05/15 03:23:48;;;;;;;35.25;24.15;;;;;;;12.75;100.00;99514.63;5073685;28;20399;-72
2023/05/15 03:26:13;;;;;;;33.42;24.17;;;;;;;12.67;100.00;99507.16;5062091;28;20461;-72
2023/05/15 03:28:39;;;;;;;33.72;24.05;;;;;;;12.77;100.00;99494.66;5054199;28;20510;-72
2023/05/15 03:31:04;;;;;;;39.67;25.50;;;;;;;12.84;100.00;99496.88;5073481;28;20029;-72
2023/05/15 03:33:31;;;;;;;32.97;24.20;;;;;;;12.85;100.00;99496.53;5074307;28;20131;-72
2023/05/15 03:35:56;;;;;;;31.67;24.35;;;;;;;12.85;100.00;99495.69;5072707;28;20043;-72
2023/05/15 03:38:22;;;;;;;38.00;24.73;;;;;;;12.82;100.00;99493.59;5073145;28;20032;-72
2023/05/15 03:40:47;;;;;;;35.30;22.50;;;;;;;12.84;100.00;99486.44;5072991;28;20025;-72
2023/05/15 03:43:12;;;;;;;33.55;23.58;;;;;;;12.86;100.00;99486.09;5072889;28;20040;-72
2023/05/15 03:45:38;;;;;;;34.38;23.63;;;;;;;12.92;100.00;99487.53;5063418;28;20029;-72
2023/05/15 03:48:04;;;;;;;34.63;23.48;;;;;;;12.79;100.00;99492.31;5063464;28;20032;-72
2023/05/15 03:50:30;;;;;;;35.50;23.52;;;;;;;12.76;100.00;99493.81;5074216;28;20052;-72
2023/05/15 03:52:55;;;;;;;32.97;24.55;;;;;;;12.72;100.00;99490.06;5072791;28;20483;-72
2023/05/15 03:55:21;;;;;;;34.65;24.25;;;;;;;12.77;100.00;99492.66;5073970;28;20064;-73
2023/05/15 03:57:46;;;;;;;42.67;26.38;;;;;;;12.70;100.00;99502.81;5072916;28;20028;-72
2023/05/15 04:00:12;;;;;;;38.45;25.60;;;;;;;12.59;100.00;99503.25;5063052;28;20041;-72
2023/05/15 04:02:38;;;;;;;34.92;25.05;;;;;;;12.50;100.00;99497.75;5053908;28;20021;-72
2023/05/15 04:05:04;;;;;;;44.28;28.90;;;;;;;12.02;100.00;99497.28;5053840;28;20036;-71
2023/05/15 04:07:31;;;;;;;43.00;30.10;;;;;;;12.14;100.00;99496.47;5056732;28;20060;-72
2023/05/15 04:10:00;;;;;;;43.47;30.92;;;;;;;12.35;100.00;99478.78;5067022;28;20487;-72
2023/05/15 04:12:29;;;;;;;47.63;31.02;;;;;;;12.13;100.00;99488.44;5062557;28;20033;-72
2023/05/15 04:15:12;;;;;;;43.72;30.08;;;;;;;12.05;100.00;99482.56;5070748;28;20040;-72
2023/05/15 04:17:37;;;;;;;39.53;28.45;;;;;;;11.90;100.00;99474.78;5072916;28;20093;-72
2023/05/15 04:20:04;;;;;;;34.60;27.17;;;;;;;12.00;100.00;99496.75;5073599;28;20384;-72
2023/05/15 04:22:30;;;;;;;41.03;27.90;;;;;;;12.12;100.00;99501.63;5072139;28;20047;-72
2023/05/15 04:24:55;;;;;;;36.38;27.20;;;;;;;12.20;100.00;99505.50;5062401;28;20028;-72
2023/05/15 04:27:21;;;;;;;40.17;26.77;;;;;;;12.32;100.00;99485.09;5063686;28;20058;-72
2023/05/15 04:29:47;;;;;;;37.40;26.85;;;;;;;12.23;100.00;99479.56;5063873;28;20491;-72
2023/05/15 04:32:12;;;;;;;36.00;25.42;;;;;;;12.47;100.00;99484.44;5070410;28;20533;-72
2023/05/15 04:34:37;;;;;;;35.90;25.90;;;;;;;12.58;100.00;99487.59;5071900;28;20504;-72
2023/05/15 04:37:03;;;;;;;38.55;25.65;;;;;;;12.09;100.00;99485.50;5072077;28;20029;-72
2023/05/15 04:39:29;;;;;;;39.78;27.10;;;;;;;12.32;100.00;99485.91;5073273;28;20108;-72
2023/05/15 04:41:55;;;;;;;37.25;26.90;;;;;;;12.48;100.00;99500.09;5073183;28;20479;-72
2023/05/15 04:44:20;;;;;;;36.75;27.25;;;;;;;12.62;100.00;99487.72;5068641;28;20045;-73
2023/05/15 04:46:46;;;;;;;46.45;27.35;;;;;;;12.73;100.00;99494.53;5058236;28;20033;-73
2023/05/15 04:49:13;;;;;;;35.22;27.15;;;;;;;12.60;100.00;99504.09;5055183;28;20475;-74
2023/05/15 04:51:40;;;;;;;33.22;25.38;;;;;;;12.76;100.00;99509.84;5059227;28;20044;-73
2023/05/15 04:54:06;;;;;;;39.38;27.42;;;;;;;12.70;100.00;99508.44;5056604;28;20482;-72
2023/05/15 04:56:32;;;;;;;35.53;25.17;;;;;;;12.56;100.00;99506.78;5066977;28;20056;-77
2023/05/15 04:58:57;;;;;;;34.95;27.10;;;;;;;12.76;100.00;99521.06;5067426;28;20036;-74
2023/05/15 05:01:23;;;;;;;60.92;28.13;;;;;;;12.76;100.00;99521.88;5063913;28;20021;-76
2023/05/15 05:03:48;;;;;;;33.65;26.17;;;;;;;12.71;100.00;99508.09;5054534;28;20090;-71
2023/05/15 05:06:13;;;;;;;39.05;25.95;;;;;;;12.78;100.00;99519.53;5064727;28;20499;-71
2023/05/15 05:08:39;;;;;;;41.15;26.38;;;;;;;12.70;100.00;99514.88;5063639;28;20028;-71
2023/05/15 05:11:04;;;;;;;41.70;27.65;;;;;;;12.85;100.00;99512.53;5062980;28;20028;-71
2023/05/15 05:13:30;;;;;;;38.58;27.38;;;;;;;12.81;100.00;99511.63;5069636;28;20028;-70
2023/05/15 05:15:55;;;;;;;43.40;26.05;;;;;;;12.75;100.00;99511.81;5072254;28;20033;-70
2023/05/15 05:18:21;;;;;;;35.88;24.42;;;;;;;12.90;100.00;99512.31;5065116;28;20036;-72
2023/05/15 05:20:46;;;;;;;36.90;25.88;;;;;;;12.92;100.00;99512.78;5052704;28;20035;-71
2023/05/15 05:23:13;;;;;;;34.15;24.83;;;;;;;12.85;100.00;99516.19;5051135;28;20521;-70
2023/05/15 05:25:39;;;;;;;34.67;24.58;;;;;;;13.06;100.00;99518.03;5051102;28;20471;-69
2023/05/15 05:28:05;;;;;;;42.70;27.42;;;;;;;13.03;100.00;99525.19;5059335;28;20025;-70
2023/05/15 05:30:30;;;;;;;43.90;26.83;;;;;;;12.69;100.00;99518.84;5069817;28;20101;-70
2023/05/15 05:32:56;;;;;;;41.38;27.05;;;;;;;12.62;100.00;99505.38;5070999;28;20097;-69
2023/05/15 05:35:21;;;;;;;46.85;29.55;;;;;;;13.00;100.00;99517.47;5069990;28;20032;-73
2023/05/15 05:37:46;;;;;;;46.92;29.33;;;;;;;13.20;100.00;99512.09;5063562;28;20568;-73
2023/05/15 05:40:12;;;;;;;45.90;27.63;;;;;;;13.28;100.00;99522.38;5063708;28;20497;-73
2023/05/15 05:42:37;;;;;;;42.17;29.08;;;;;;;13.33;100.00;99521.31;5061195;28;20023;-75
2023/05/15 05:45:05;;;;;;;44.55;28.10;;;;;;;12.86;100.00;99514.19;5065008;28;20064;-73
2023/05/15 05:47:30;;;;;;;40.45;27.45;;;;;;;12.72;100.00;99509.72;5058147;28;20028;-77
2023/05/15 05:49:56;;;;;;;35.92;26.13;;;;;;;12.70;100.00;99514.88;5070383;28;20039;-75
2023/05/15 05:52:21;;;;;;;41.13;27.98;;;;;;;12.88;100.00;99509.03;5070821;28;20028;-70
2023/05/15 05:54:47;;;;;;;42.88;29.17;;;;;;;13.02;100.00;99503.88;5057810;28;20029;-71
2023/05/15 05:57:13;;;;;;;41.17;28.20;;;;;;;13.28;100.00;99502.72;5058647;28;20028;-70
2023/05/15 05:59:39;;;;;;;50.55;34.47;;;;;;;13.36;100.00;99508.56;5064820;28;20043;-73
2023/05/15 06:02:04;;;;;;;44.10;30.80;;;;;;;13.49;100.00;99518.63;5060239;28;20028;-73
2023/05/15 06:04:32;;;;;;;53.75;30.63;;;;;;;13.57;100.00;99522.47;5059967;28;20085;-73
2023/05/15 06:06:58;;;;;;;38.92;26.60;;;;;;;13.56;100.00;99530.09;5060344;28;20028;-72
2023/05/15 06:09:23;;;;;;;34.92;24.40;;;;;;;13.68;100.00;99523.63;5053586;28;20498;-76
2023/05/15 06:11:49;;;;;;;53.83;29.27;;;;;;;13.74;100.00;99527.84;5060552;28;20411;-73
2023/05/15 06:14:15;;;;;;;44.95;26.42;;;;;;;13.60;100.00;99500.09;5063028;28;20024;-75
2023/05/15 06:16:40;;;;;;;41.47;26.48;;;;;;;13.47;100.00;99493.72;5071107;28;20025;-76
2023/05/15 06:19:06;;;;;;;41.55;25.85;;;;;;;13.68;100.00;99495.53;5068234;28;20029;-73
2023/05/15 06:21:32;;;;;;;42.42;28.25;;;;;;;13.82;100.00;99485.91;5069925;28;20021;-74
2023/05/15 06:23:58;;;;;;;38.03;27.85;;;;;;;13.86;100.00;99498.84;5067043;28;20119;-74
2023/05/15 06:26:24;;;;;;;45.13;25.98;;;;;;;13.92;98.92;99484.56;5069523;28;20031;-75
2023/05/15 06:28:50;;;;;;;42.03;26.95;;;;;;;14.02;98.76;99498.13;5060271;28;20021;-73
2023/05/15 06:31:16;;;;;;;51.92;29.48;;;;;;;14.11;97.65;99498.75;5056454;28;20090;-77
2023/05/15 06:33:41;;;;;;;46.97;30.75;;;;;;;14.02;97.67;99507.34;5061120;28;20017;-73
2023/05/15 06:36:07;;;;;;;47.67;30.95;;;;;;;14.14;97.83;99514.94;5054635;28;20106;-72
2023/05/15 06:38:33;;;;;;;49.42;33.45;;;;;;;14.11;97.73;99518.44;5053014;28;20506;-72
2023/05/15 06:40:58;;;;;;;51.35;35.15;;;;;;;14.04;96.67;99507.00;5053075;28;20031;-71
2023/05/15 06:43:24;;;;;;;48.72;32.72;;;;;;;14.14;95.69;99503.69;5063643;28;20040;-73
2023/05/15 06:45:49;;;;;;;56.28;36.03;;;;;;;14.35;93.84;99499.81;5057378;28;20039;-73
2023/05/15 06:48:15;;;;;;;51.15;32.53;;;;;;;14.40;93.09;99499.56;5060719;28;20039;-74
2023/05/15 06:50:40;;;;;;;47.58;30.10;;;;;;;14.41;92.55;99489.94;5055287;28;20033;-73
2023/05/15 06:53:05;;;;;;;55.83;31.20;;;;;;;14.28;94.70;99491.19;5050041;28;20025;-73
2023/05/15 06:55:33;;;;;;;47.67;31.35;;;;;;;13.94;97.72;99504.69;5064515;28;20036;-72
2023/05/15 06:57:58;;;;;;;47.70;29.77;;;;;;;13.96;97.28;99500.38;5061830;28;20407;-75
2023/05/15 07:00:23;;;;;;;43.33;28.95;;;;;;;14.15;96.62;99496.06;5056668;28;20036;-70
2023/05/15 07:02:49;;;;;;;44.95;29.08;;;;;;;14.38;95.48;99492.66;5059657;28;20025;-73
2023/05/15 07:05:14;;;;;;;41.70;28.58;;;;;;;14.14;95.55;99492.44;5055665;28;20028;-70
2023/05/15 07:07:40;;;;;;;45.95;30.20;;;;;;;13.70;96.42;99496.00;5061642;28;20033;-69
2023/05/15 07:10:06;;;;;;;41.67;30.52;;;;;;;13.83;97.99;99510.81;5060013;28;20040;-71
2023/05/15 07:12:33;;;;;;;42.35;28.10;;;;;;;14.02;96.03;99503.75;5052672;28;20024;-70
2023/05/15 07:14:58;;;;;;;43.30;28.95;;;;;;;14.21;93.65;99494.63;5065748;28;20040;-72
2023/05/15 07:17:23;;;;;;;39.50;27.10;;;;;;;14.35;93.13;99482.13;5067366;28;20063;-70
2023/05/15 07:19:49;;;;;;;41.95;27.52;;;;;;;14.29;94.33;99487.19;5064790;28;20387;-70
2023/05/15 07:22:14;;;;;;;40.72;27.45;;;;;;;14.22;95.91;99479.38;5061876;28;20044;-72
2023/05/15 07:24:40;;;;;;;47.63;26.50;;;;;;;14.30;93.36;99475.59;5058743;28;20024;-71
2023/05/15 07:27:05;;;;;;;49.05;29.50;;;;;;;14.48;94.66;99480.88;5057241;28;20487;-72
2023/05/15 07:29:31;;;;;;;49.03;28.38;;;;;;;14.64;94.98;99488.50;5052944;28;20086;-74
2023/05/15 07:31:56;;;;;;;44.85;28.15;;;;;;;14.80;94.06;99485.72;5060578;28;20028;-71
2023/05/15 07:34:22;;;;;;;37.75;26.80;;;;;;;14.68;91.01;99478.19;5054330;28;20028;-71
2023/05/15 07:36:48;;;;;;;43.42;29.00;;;;;;;14.84;93.31;99481.00;5056378;28;20056;-69
2023/05/15 07:39:13;;;;;;;36.25;25.15;;;;;;;14.80;91.50;99478.13;5064172;28;20025;-70
2023/05/15 07:41:42;;;;;;;31.02;24.45;;;;;;;14.99;91.84;99477.38;5066863;28;20416;-71
2023/05/15 07:44:07;;;;;;;32.25;22.30;;;;;;;14.88;92.04;99479.09;5066994;28;20591;-71
2023/05/15 07:46:33;;;;;;;34.55;21.85;;;;;;;14.90;91.48;99487.19;5069472;28;20108;-71
2023/05/15 07:48:58;;;;;;;24.30;20.27;;;;;;;14.86;90.93;99489.94;5064225;28;20039;-71
2023/05/15 07:51:24;;;;;;;30.15;19.95;;;;;;;14.74;88.14;99496.44;5071919;28;20415;-71
2023/05/15 07:53:49;;;;;;;26.50;20.40;;;;;;;14.94;87.72;99505.78;5071641;28;20036;-71
2023/05/15 07:56:15;;;;;;;22.95;19.00;;;;;;;14.96;86.64;99509.09;5073588;28;20017;-71
2023/05/15 07:58:40;;;;;;;25.92;19.23;;;;;;;14.96;86.55;99514.72;5071861;28;20028;-72
2023/05/15 08:01:06;;;;;;;37.72;21.13;;;;;;;15.14;85.35;99505.88;5073431;28;20012;-71
2023/05/15 08:03:32;;;;;;;25.52;19.25;;;;;;;15.22;84.38;99518.97;5070924;28;20123;-70
2023/05/15 08:05:58;;;;;;;25.90;19.95;;;;;;;15.06;85.45;99518.16;5071686;28;20089;-71
2023/05/15 08:08:24;;;;;;;27.88;20.52;;;;;;;15.08;84.22;99510.97;5071834;28;20024;-71
2023/05/15 08:10:49;;;;;;;29.60;20.13;;;;;;;14.93;86.95;99509.78;5052119;28;20526;-71
2023/05/15 08:13:15;;;;;;;25.27;18.95;;;;;;;14.79;86.48;99509.44;5058331;28;20466;-71
2023/05/15 08:15:40;;;;;;;22.95;18.90;;;;;;;14.96;86.44;99511.91;5060595;28;20052;-71
2023/05/15 08:18:10;;;;;;;30.00;21.50;;;;;;;15.02;86.15;99512.41;5063012;28;20032;-72
2023/05/15 08:20:37;;;;;;;24.90;19.80;;;;;;;14.89;87.28;99508.91;5072459;28;20036;-69
2023/05/15 08:23:02;;;;;;;24.42;19.77;;;;;;;14.75;85.29;99503.72;5071043;28;20033;-72
2023/05/15 08:25:28;;;;;;;27.23;20.50;;;;;;;14.53;86.57;99500.31;5071606;28;20078;-71
2023/05/15 08:27:53;;;;;;;27.45;21.13;;;;;;;14.73;87.93;99494.81;5071743;28;20380;-73
2023/05/15 08:30:19;;;;;;;30.48;22.23;;;;;;;14.92;87.51;99501.72;5066928;28;20086;-73
2023/05/15 08:32:45;;;;;;;26.90;20.85;;;;;;;14.98;87.23;99506.72;5072308;28;20097;-72
2023/05/15 08:35:10;;;;;;;27.73;20.88;;;;;;;15.20;85.67;99503.59;5072780;28;20036;-72
2023/05/15 08:37:36;;;;;;;29.13;20.25;;;;;;;15.16;85.43;99497.88;5072018;28;20028;-76
2023/05/15 08:40:09;;;;;;;30.58;21.20;;;;;;;15.01;86.32;99494.72;5071186;28;20036;-73
2023/05/15 08:42:42;;;;;;;29.85;22.33;;;;;;;15.16;85.37;99507.16;5070269;28;20415;-72
2023/05/15 08:45:08;;;;;;;26.70;21.13;;;;;;;15.27;84.02;99493.31;5063957;28;20056;-72
2023/05/15 08:47:38;;;;;;;25.25;20.77;;;;;;;15.18;83.50;99487.06;5067683;28;20055;-71
2023/05/15 08:50:06;;;;;;;33.17;22.38;;;;;;;15.04;83.33;99483.91;5069014;28;20055;-72
2023/05/15 08:52:33;;;;;;;27.38;21.55;;;;;;;14.97;85.03;99485.38;5072019;28;20040;-73
2023/05/15 08:54:59;;;;;;;28.52;23.02;;;;;;;15.07;85.01;99480.34;5072065;28;20047;-70
2023/05/15 08:57:27;;;;;;;32.22;22.13;;;;;;;15.07;84.92;99474.72;5065512;28;20039;-70
2023/05/15 08:59:53;;;;;;;39.10;23.10;;;;;;;15.20;83.82;99472.63;5068224;28;20027;-72
2023/05/15 09:02:19;;;;;;;32.35;23.08;;;;;;;15.28;84.51;99469.59;5052316;28;20032;-71
2023/05/15 09:04:45;;;;;;;38.75;24.33;;;;;;;15.32;84.90;99466.03;5069624;28;20028;-70
2023/05/15 09:07:14;;;;;;;32.45;23.45;;;;;;;15.21;84.88;99474.25;5069503;28;20517;-73
2023/05/15 09:09:40;;;;;;;33.30;24.95;;;;;;;15.13;86.22;99476.09;5061657;28;20051;-72
2023/05/15 09:12:09;;;;;;;36.67;26.15;;;;;;;15.24;83.82;99467.88;5067934;28;20100;-73
2023/05/15 09:14:35;;;;;;;31.10;23.40;;;;;;;15.21;84.28;99477.91;5065594;28;20028;-73
2023/05/15 09:17:00;;;;;;;37.33;25.20;;;;;;;15.09;85.04;99469.56;5063363;28;20024;-73
2023/05/15 09:19:26;;;;;;;36.15;26.48;;;;;;;15.28;84.77;99471.59;5069147;28;20031;-73
2023/05/15 09:21:52;;;;;;;31.92;25.52;;;;;;;15.06;85.41;99457.00;5066753;28;20402;-73
2023/05/15 09:24:23;;;;;;;32.10;25.25;;;;;;;15.23;84.92;99458.63;5066708;28;20029;-73
2023/05/15 09:27:08;;;;;;;38.90;26.10;;;;;;;15.09;85.06;99445.00;5065610;28;20028;-72
2023/05/15 09:29:35;;;;;;;38.70;27.30;;;;;;;15.12;85.33;99458.34;5057432;28;20036;-69
2023/05/15 09:32:13;;;;;;;36.00;28.60;;;;;;;15.39;84.34;99452.94;5066285;28;20028;-73
2023/05/15 09:34:43;;;;;;;42.58;30.23;;;;;;;15.41;83.76;99446.94;5054674;28;20767;-71
2023/05/15 09:37:12;;;;;;;38.33;26.88;;;;;;;15.25;83.40;99455.41;5062405;28;20027;-72
2023/05/15 09:39:42;;;;;;;40.15;27.65;;;;;;;15.32;83.63;99449.13;5066500;28;20535;-73
2023/05/15 09:42:09;;;;;;;38.95;30.00;;;;;;;15.25;84.04;99444.97;5063502;28;20025;-76
2023/05/15 09:44:39;;;;;;;39.53;27.33;;;;;;;15.21;84.42;99441.28;5056948;28;20503;-74
2023/05/15 09:47:05;;;;;;;38.10;26.83;;;;;;;15.35;83.40;99434.31;5056775;28;20041;-73
2023/05/15 09:49:31;;;;;;;37.20;28.38;;;;;;;15.26;84.21;99426.88;5063579;28;20042;-71
2023/05/15 09:51:58;;;;;;;34.65;25.00;;;;;;;15.14;84.13;99425.03;5056402;28;20024;-71
2023/05/15 09:54:26;;;;;;;37.22;27.05;;;;;;;15.35;83.53;99426.66;5062361;28;20044;-73
2023/05/15 09:56:52;;;;;;;35.47;27.85;;;;;;;15.00;82.22;99425.50;5055915;28;20407;-73
2023/05/15 09:59:23;;;;;;;31.90;25.63;;;;;;;14.73;83.76;99419.63;5052902;28;20031;-76
2023/05/15 10:01:49;;;;;;;;;;;;;;;15.01;84.53;99426.28;5064448;28;20487;-72
2023/05/15 10:04:15;;;;;;;34.30;27.45;;;;;;;15.15;84.34;99423.00;5068015;28;19974;-70
2023/05/15 10:06:44;;;;;;;37.15;27.75;;;;;;;15.25;84.24;99425.25;5066187;28;20104;-75
2023/05/15 10:09:10;;;;;;;40.13;26.73;;;;;;;15.42;82.30;99418.38;5063543;28;20032;-74
2023/05/15 10:11:37;;;;;;;36.17;27.17;;;;;;;15.52;81.44;99416.97;5063421;28;20020;-72
2023/05/15 10:14:05;;;;;;;39.92;29.25;;;;;;;15.51;83.69;99406.88;5064186;28;20030;-74
2023/05/15 10:16:34;;;;;;;38.20;27.45;;;;;;;15.70;83.42;99408.88;5066921;28;20107;-71
2023/05/15 10:19:02;;;;;;;39.67;28.15;;;;;;;15.62;83.90;99401.47;5062136;28;20415;-73
2023/05/15 10:21:30;;;;;;;42.35;28.00;;;;;;;15.73;84.88;99398.88;5052206;28;20033;-76
2023/05/15 10:23:59;;;;;;;41.47;28.77;;;;;;;15.63;86.14;99385.38;5050931;28;20029;-73
2023/05/15 10:26:41;;;;;;;40.17;29.70;;;;;;;15.81;84.79;99395.03;5049675;28;20029;-73
2023/05/15 10:29:17;;;;;;;38.42;26.95;;;;;;;15.67;85.41;99406.00;5060406;28;20124;-74
2023/05/15 10:31:42;;;;;;;38.75;26.45;;;;;;;15.80;83.41;99403.84;5058399;28;20016;-76
2023/05/15 10:34:09;;;;;;;41.70;29.00;;;;;;;15.79;83.64;99391.72;5062809;28;20052;-77
2023/05/15 10:36:37;;;;;;;41.85;28.27;;;;;;;15.80;84.10;99386.94;5061430;28;20032;-76
2023/05/15 10:39:05;;;;;;;44.67;29.75;;;;;;;15.89;83.90;99387.50;5061037;28;20107;-77
2023/05/15 10:41:39;;;;;;;44.00;29.67;;;;;;;15.81;83.54;99378.09;5060996;28;20009;-77
2023/05/15 10:44:05;;;;;;;41.63;29.13;;;;;;;15.54;84.69;99386.41;5061134;28;20530;-76
2023/05/15 10:46:33;;;;;;;39.60;30.15;;;;;;;15.54;84.67;99380.78;5061420;28;20020;-77
2023/05/15 10:49:00;;;;;;;37.25;27.85;;;;;;;15.91;83.20;99393.63;5063480;28;20419;-76
2023/05/15 10:51:31;;;;;;;43.25;31.13;;;;;;;16.12;80.56;99376.28;5060922;28;20029;-76
2023/05/15 10:53:59;;;;;;;49.03;32.03;;;;;;;16.24;81.18;99368.81;5057571;28;20021;-76
2023/05/15 10:56:45;;;;;;;47.70;31.83;;;;;;;16.16;81.28;99378.34;5064082;28;20422;-76
2023/05/15 10:59:13;;;;;;;42.67;31.70;;;;;;;16.30;80.05;99372.97;5068872;28;20041;-76
2023/05/15 11:01:40;;;;;;;41.65;30.30;;;;;;;16.19;80.48;99381.22;5060145;28;20111;-76
2023/05/15 11:04:10;;;;;;;43.60;31.27;;;;;;;16.28;80.22;99372.50;5061605;28;20055;-76
2023/05/15 11:06:37;;;;;;;45.28;30.52;;;;;;;16.40;81.25;99363.84;5057409;28;20487;-76
2023/05/15 11:09:21;;;;;;;41.47;31.42;;;;;;;16.36;80.15;99381.94;5060144;28;20514;-76
2023/05/15 11:11:55;;;;;;;42.78;30.30;;;;;;;16.45;79.40;99378.84;5058271;28;20021;-77
2023/05/15 11:14:26;;;;;;;48.58;32.72;;;;;;;16.27;80.37;99374.53;5066683;28;20024;-75